Time;durP1;ratioP1;P1;durP2;ratioP2;P2;SDS_P1;SDS_P2;PMS_P1;PMS_P2;Temp;Humidity;BMP_temperature;BMP_pressure;BME280_temperature;BME280_humidity;BME280_pressure;Samples;Min_cycle;Max_cycle;Signal;HPM_P1;HPM_P2
2021/09/07 00:02:23;;;;;;;;;;;21.40;78.90;;;;;;4330247;33;42999;-78
2021/09/07 00:04:53;;;;;;;;;;;21.40;79.10;;;;;;4330672;33;46093;-79
2021/09/07 00:07:22;;;;;;;;;;;21.30;79.20;;;;;;4331287;33;43251;-78
2021/09/07 00:09:50;;;;;;;;;;;21.30;79.40;;;;;;4330547;33;45495;-79
2021/09/07 00:12:18;;;;;;;;;;;21.30;79.50;;;;;;4331938;33;43475;-79
2021/09/07 00:14:51;;;;;;;;;;;21.30;79.40;;;;;;4330543;33;42794;-78
2021/09/07 00:17:18;;;;;;;;;;;21.30;79.60;;;;;;4330599;33;43895;-79
2021/09/07 00:19:50;;;;;;;;;;;21.30;79.50;;;;;;4330176;33;44267;-78
2021/09/07 00:22:17;;;;;;;;;;;21.30;79.60;;;;;;4331671;33;44246;-78
2021/09/07 00:24:44;;;;;;;;;;;21.30;79.60;;;;;;4330396;33;44838;-78
2021/09/07 00:27:14;;;;;;;;;;;21.20;79.70;;;;;;4330517;33;43539;-78
2021/09/07 00:29:42;;;;;;;;;;;21.20;79.50;;;;;;4331342;33;44750;-78
2021/09/07 00:32:12;;;;;;;;;;;21.20;79.70;;;;;;4331289;33;43577;-79
2021/09/07 00:34:39;;;;;;;;;;;21.20;79.80;;;;;;4330537;33;43607;-79
2021/09/07 00:37:06;;;;;;;;;;;21.20;79.90;;;;;;4331062;33;44280;-79
2021/09/07 00:39:33;;;;;;;;;;;21.20;80.00;;;;;;4329901;33;44260;-79
2021/09/07 00:42:00;;;;;;;;;;;21.20;80.10;;;;;;4329803;33;42919;-78
2021/09/07 00:44:27;;;;;;;;;;;21.10;80.20;;;;;;4330787;33;43572;-79
2021/09/07 00:46:56;;;;;;;;;;;21.10;80.40;;;;;;4330843;33;42955;-79
2021/09/07 00:49:24;;;;;;;;;;;21.10;80.50;;;;;;4329779;33;42318;-78
2021/09/07 00:51:51;;;;;;;;;;;21.10;80.60;;;;;;4331223;33;43423;-79
2021/09/07 00:54:36;;;;;;;;;;;21.10;80.60;;;;;;4330368;33;44225;-79
2021/09/07 00:57:06;;;;;;;;;;;21.10;80.70;;;;;;4329964;33;42676;-79
2021/09/07 00:59:37;;;;;;;;;;;21.10;80.80;;;;;;4330852;33;43482;-79
2021/09/07 01:02:04;;;;;;;;;;;21.10;80.70;;;;;;4327016;33;43528;-78
2021/09/07 01:04:35;;;;;;;;;;;21.10;80.90;;;;;;4315677;33;43478;-78
2021/09/07 01:07:02;;;;;;;;;;;21.10;80.90;;;;;;4315880;33;43298;-78
2021/09/07 01:09:32;;;;;;;;;;;21.10;80.80;;;;;;4315248;33;42721;-79
2021/09/07 01:11:59;;;;;;;;;;;21.10;81.00;;;;;;4315783;33;42502;-79
2021/09/07 01:14:34;;;;;;;;;;;21.10;81.00;;;;;;4314642;33;44010;-79
2021/09/07 01:17:04;;;;;;;;;;;21.10;80.90;;;;;;4316133;33;43770;-78
2021/09/07 01:19:34;;;;;;;;;;;21.00;80.90;;;;;;4327133;33;43882;-79
2021/09/07 01:22:01;;;;;;;;;;;21.00;80.90;;;;;;4314998;33;43225;-79
2021/09/07 01:24:28;;;;;;;;;;;21.00;81.10;;;;;;4315774;33;44145;-78
2021/09/07 01:26:55;;;;;;;;;;;21.00;81.10;;;;;;4314709;33;43026;-79
2021/09/07 01:29:23;;;;;;;;;;;21.00;81.20;;;;;;4326794;33;43189;-78
2021/09/07 01:31:56;;;;;;;;;;;21.00;81.30;;;;;;4315586;33;43231;-79
2021/09/07 01:34:23;;;;;;;;;;;21.00;81.30;;;;;;4314643;33;43222;-78
2021/09/07 01:36:53;;;;;;;;;;;20.90;81.30;;;;;;4314536;33;42965;-79
2021/09/07 01:39:20;;;;;;;;;;;20.90;81.40;;;;;;4315629;33;44123;-79
2021/09/07 01:41:47;;;;;;;;;;;20.90;81.40;;;;;;4315584;33;43728;-79
2021/09/07 01:44:15;;;;;;;;;;;20.90;81.60;;;;;;4327057;33;45756;-78
2021/09/07 01:46:42;;;;;;;;;;;20.90;81.70;;;;;;4315751;33;44321;-79
2021/09/07 01:49:10;;;;;;;;;;;20.90;81.60;;;;;;4314834;33;44057;-79
2021/09/07 01:51:38;;;;;;;;;;;20.90;81.70;;;;;;4315510;33;42953;-79
2021/09/07 01:54:06;;;;;;;;;;;20.90;81.80;;;;;;4315885;33;44787;-78
2021/09/07 01:56:33;;;;;;;;;;;20.90;81.80;;;;;;4326494;33;43194;-79
2021/09/07 01:59:04;;;;;;;;;;;20.90;81.60;;;;;;4326498;33;44019;-78
2021/09/07 02:01:31;;;;;;;;;;;20.90;81.60;;;;;;4317069;33;43938;-78
2021/09/07 02:03:59;;;;;;;;;;;20.80;81.50;;;;;;4332343;33;44221;-79
2021/09/07 02:06:29;;;;;;;;;;;20.80;81.70;;;;;;4333060;33;42957;-79
2021/09/07 02:08:56;;;;;;;;;;;20.80;81.70;;;;;;4333134;33;44210;-79
2021/09/07 02:11:23;;;;;;;;;;;20.80;81.60;;;;;;4333105;33;43466;-78
2021/09/07 02:13:53;;;;;;;;;;;20.80;81.60;;;;;;4332499;33;43604;-79
2021/09/07 02:16:20;;;;;;;;;;;20.70;81.70;;;;;;4333262;33;45946;-78
2021/09/07 02:18:47;;;;;;;;;;;20.70;81.70;;;;;;4333340;33;20009;-78
2021/09/07 02:21:14;;;;;;;;;;;20.70;81.80;;;;;;4332819;33;42732;-78
2021/09/07 02:23:41;;;;;;;;;;;20.70;81.80;;;;;;4332680;33;44520;-78
2021/09/07 02:26:08;;;;;;;;;;;20.70;82.00;;;;;;4332268;33;43884;-78
2021/09/07 02:28:39;;;;;;;;;;;20.60;82.10;;;;;;4332784;33;43576;-78
2021/09/07 02:31:07;;;;;;;;;;;20.60;82.20;;;;;;4332597;33;43909;-78
2021/09/07 02:33:34;;;;;;;;;;;20.60;82.10;;;;;;4331519;33;43961;-79
2021/09/07 02:36:02;;;;;;;;;;;20.60;82.20;;;;;;4333123;33;43856;-79
2021/09/07 02:38:32;;;;;;;;;;;20.60;82.30;;;;;;4332969;33;43557;-78
2021/09/07 02:40:59;;;;;;;;;;;20.60;82.50;;;;;;4331963;33;43470;-78
2021/09/07 02:43:26;;;;;;;;;;;20.60;82.50;;;;;;4332903;33;42744;-78
2021/09/07 02:45:56;;;;;;;;;;;20.60;82.60;;;;;;4332915;33;43252;-78
2021/09/07 02:48:23;;;;;;;;;;;20.50;82.60;;;;;;4332425;33;45448;-78
2021/09/07 02:50:51;;;;;;;;;;;20.50;82.60;;;;;;4331607;33;43192;-78
2021/09/07 02:53:18;;;;;;;;;;;20.50;82.50;;;;;;4331567;33;42736;-78
2021/09/07 02:55:45;;;;;;;;;;;20.50;82.60;;;;;;4331400;33;44242;-78
2021/09/07 02:58:12;;;;;;;;;;;20.50;82.60;;;;;;4332475;33;43826;-79
2021/09/07 03:00:39;;;;;;;;;;;20.50;83.50;;;;;;4331258;33;42565;-79
2021/09/07 03:03:06;;;;;;;;;;;20.50;82.80;;;;;;4332436;33;42701;-80
2021/09/07 03:05:34;;;;;;;;;;;20.50;82.80;;;;;;4332388;33;43441;-79
2021/09/07 03:08:01;;;;;;;;;;;20.50;82.90;;;;;;4332502;33;43268;-80
2021/09/07 03:10:28;;;;;;;;;;;20.50;82.90;;;;;;4332130;33;44196;-79
2021/09/07 03:12:55;;;;;;;;;;;20.50;82.90;;;;;;4330614;33;44834;-81
2021/09/07 03:15:22;;;;;;;;;;;20.40;82.80;;;;;;4331788;33;43368;-80
2021/09/07 03:17:49;;;;;;;;;;;20.40;82.80;;;;;;4332184;33;42796;-80
2021/09/07 03:20:17;;;;;;;;;;;20.40;82.80;;;;;;4331986;33;43481;-80
2021/09/07 03:22:45;;;;;;;;;;;20.40;82.80;;;;;;4331929;33;45897;-80
2021/09/07 03:25:12;;;;;;;;;;;20.40;82.80;;;;;;4332068;33;43249;-80
2021/09/07 03:27:39;;;;;;;;;;;20.40;82.80;;;;;;4331795;33;45995;-80
2021/09/07 03:30:09;;;;;;;;;;;20.30;82.80;;;;;;4331299;33;42389;-80
2021/09/07 03:32:39;;;;;;;;;;;20.30;82.80;;;;;;4331947;33;42519;-79
2021/09/07 03:35:07;;;;;;;;;;;20.30;82.90;;;;;;4332061;33;44051;-80
2021/09/07 03:37:35;;;;;;;;;;;20.30;83.00;;;;;;4330963;33;44723;-80
2021/09/07 03:40:03;;;;;;;;;;;20.30;83.10;;;;;;4332124;33;42952;-80
2021/09/07 03:42:36;;;;;;;;;;;20.30;83.10;;;;;;4331107;33;43438;-80
2021/09/07 03:45:04;;;;;;;;;;;20.30;83.20;;;;;;4330895;33;43075;-80
2021/09/07 03:47:32;;;;;;;;;;;20.30;83.20;;;;;;4330558;33;44200;-80
2021/09/07 03:49:59;;;;;;;;;;;20.30;83.30;;;;;;4330916;33;43473;-80
2021/09/07 03:52:26;;;;;;;;;;;20.30;83.30;;;;;;4331564;33;43915;-80
2021/09/07 03:54:53;;;;;;;;;;;20.30;83.40;;;;;;4331921;33;43594;-80
2021/09/07 03:57:21;;;;;;;;;;;20.20;83.40;;;;;;4330549;33;42627;-80
2021/09/07 03:59:48;;;;;;;;;;;20.20;83.40;;;;;;4330656;33;43508;-79
2021/09/07 04:02:16;;;;;;;;;;;20.20;83.40;;;;;;4328024;33;43859;-79
2021/09/07 04:04:48;;;;;;;;;;;20.20;83.10;;;;;;4316149;33;43551;-79
2021/09/07 04:07:15;;;;;;;;;;;20.20;83.00;;;;;;4328301;33;43244;-81
2021/09/07 04:09:43;;;;;;;;;;;20.20;83.10;;;;;;4315920;33;43291;-80
2021/09/07 04:12:10;;;;;;;;;;;20.20;83.20;;;;;;4315530;33;42751;-80
2021/09/07 04:14:38;;;;;;;;;;;20.10;83.20;;;;;;4315557;33;44320;-80
2021/09/07 04:17:06;;;;;;;;;;;20.10;83.10;;;;;;4316688;33;43213;-80
2021/09/07 04:19:33;;;;;;;;;;;20.10;83.20;;;;;;4317623;33;20057;-79
2021/09/07 04:22:00;;;;;;;;;;;20.10;83.20;;;;;;4316540;33;42898;-80
2021/09/07 04:24:27;;;;;;;;;;;20.10;83.90;;;;;;4316336;33;43959;-80
2021/09/07 04:26:54;;;;;;;;;;;20.10;83.30;;;;;;4316535;33;44667;-80
2021/09/07 04:29:22;;;;;;;;;;;20.00;83.20;;;;;;4327871;33;44100;-80
2021/09/07 04:31:49;;;;;;;;;;;20.00;83.30;;;;;;4316655;33;42887;-80
2021/09/07 04:34:16;;;;;;;;;;;20.00;83.30;;;;;;4316793;33;44187;-80
2021/09/07 04:36:43;;;;;;;;;;;20.00;83.30;;;;;;4327768;33;44211;-80
2021/09/07 04:39:13;;;;;;;;;;;20.10;83.50;;;;;;4316373;33;45840;-80
2021/09/07 04:41:40;;;;;;;;;;;20.00;83.40;;;;;;4316415;33;45570;-79
2021/09/07 04:44:07;;;;;;;;;;;20.00;83.50;;;;;;4315694;33;43588;-80
2021/09/07 04:46:35;;;;;;;;;;;20.00;83.40;;;;;;4327555;33;42572;-80
2021/09/07 04:49:02;;;;;;;;;;;20.00;83.40;;;;;;4316505;33;43101;-80
2021/09/07 04:51:32;;;;;;;;;;;20.00;83.50;;;;;;4316151;33;44005;-80
2021/09/07 04:54:01;;;;;;;;;;;20.00;83.60;;;;;;4327130;33;43118;-80
2021/09/07 04:56:28;;;;;;;;;;;19.90;83.60;;;;;;4314996;33;42729;-80
2021/09/07 04:58:55;;;;;;;;;;;19.90;83.60;;;;;;4327048;33;42910;-81
2021/09/07 05:01:22;;;;;;;;;;;19.90;83.60;;;;;;4317679;33;43100;-80
2021/09/07 05:03:50;;;;;;;;;;;19.90;83.60;;;;;;4331045;33;43819;-80
2021/09/07 05:06:17;;;;;;;;;;;19.90;83.60;;;;;;4331011;33;44265;-80
2021/09/07 05:08:47;;;;;;;;;;;19.90;83.60;;;;;;4330467;33;42609;-80
2021/09/07 05:11:14;;;;;;;;;;;19.90;83.60;;;;;;4330734;33;44202;-81
2021/09/07 05:13:41;;;;;;;;;;;19.90;83.50;;;;;;4330342;33;44213;-80
2021/09/07 05:16:11;;;;;;;;;;;19.80;83.50;;;;;;4329711;33;43079;-80
2021/09/07 05:18:38;;;;;;;;;;;19.90;83.50;;;;;;4330860;33;44167;-80
2021/09/07 05:21:05;;;;;;;;;;;19.80;83.40;;;;;;4329428;33;43256;-80
2021/09/07 05:23:39;;;;;;;;;;;19.80;83.40;;;;;;4330728;33;44958;-81
2021/09/07 05:26:06;;;;;;;;;;;19.80;83.50;;;;;;4330597;33;42766;-81
2021/09/07 05:28:33;;;;;;;;;;;19.80;83.50;;;;;;4330828;33;44159;-80
2021/09/07 05:31:17;;;;;;;;;;;19.80;83.40;;;;;;4329941;33;43060;-80
2021/09/07 05:33:47;;;;;;;;;;;19.70;83.30;;;;;;4329294;33;43363;-80
2021/09/07 05:36:14;;;;;;;;;;;19.70;83.50;;;;;;4329994;33;43308;-80
2021/09/07 05:38:47;;;;;;;;;;;19.70;83.50;;;;;;4330602;33;44163;-79
2021/09/07 05:41:14;;;;;;;;;;;19.70;83.50;;;;;;4329550;33;46004;-80
2021/09/07 05:43:45;;;;;;;;;;;19.70;83.50;;;;;;4330164;33;43558;-80
2021/09/07 05:46:17;;;;;;;;;;;19.70;83.50;;;;;;4330268;33;44185;-80
2021/09/07 05:48:46;;;;;;;;;;;19.70;83.40;;;;;;4330641;33;44807;-79
2021/09/07 05:51:15;;;;;;;;;;;19.60;84.30;;;;;;4329500;33;43294;-79
2021/09/07 05:53:43;;;;;;;;;;;19.60;83.60;;;;;;4329392;33;44286;-80
2021/09/07 05:56:10;;;;;;;;;;;19.60;83.60;;;;;;4329602;33;43117;-80
2021/09/07 05:58:38;;;;;;;;;;;19.60;83.50;;;;;;4330443;33;45727;-80
2021/09/07 06:01:09;;;;;;;;;;;19.60;83.70;;;;;;4329422;33;44072;-80
2021/09/07 06:03:37;;;;;;;;;;;19.60;83.60;;;;;;4330536;33;43227;-79
2021/09/07 06:06:04;;;;;;;;;;;19.60;83.70;;;;;;4328924;33;43314;-79
2021/09/07 06:08:37;;;;;;;;;;;19.60;83.80;;;;;;4329211;33;43924;-80
2021/09/07 06:11:07;;;;;;;;;;;19.60;83.80;;;;;;4330642;33;43170;-80
2021/09/07 06:13:34;;;;;;;;;;;19.60;83.90;;;;;;4329968;33;44338;-80
2021/09/07 06:16:02;;;;;;;;;;;19.60;83.90;;;;;;4329895;33;43855;-80
2021/09/07 06:18:29;;;;;;;;;;;19.60;83.80;;;;;;4330541;33;44834;-80
2021/09/07 06:20:59;;;;;;;;;;;19.60;84.00;;;;;;4329802;33;45426;-80
2021/09/07 06:23:26;;;;;;;;;;;19.60;84.10;;;;;;4329005;33;42623;-80
2021/09/07 06:25:58;;;;;;;;;;;19.60;84.10;;;;;;4328700;33;44529;-79
2021/09/07 06:28:28;;;;;;;;;;;19.50;84.20;;;;;;4328983;33;43242;-80
2021/09/07 06:30:55;;;;;;;;;;;19.50;84.20;;;;;;4329324;33;43949;-80
2021/09/07 06:33:22;;;;;;;;;;;19.50;84.30;;;;;;4328672;33;43064;-80
2021/09/07 06:35:50;;;;;;;;;;;19.50;84.40;;;;;;4328967;33;44213;-80
2021/09/07 06:38:19;;;;;;;;;;;19.60;84.30;;;;;;4328810;33;42855;-80
2021/09/07 06:40:46;;;;;;;;;;;19.50;84.30;;;;;;4328678;33;44201;-81
2021/09/07 06:43:16;;;;;;;;;;;19.50;84.40;;;;;;4329223;33;43474;-80
2021/09/07 06:45:47;;;;;;;;;;;19.50;84.40;;;;;;4329064;33;43242;-80
2021/09/07 06:48:14;;;;;;;;;;;19.50;84.50;;;;;;4329879;33;43372;-81
2021/09/07 06:50:44;;;;;;;;;;;19.50;84.60;;;;;;4331438;33;43542;-80
2021/09/07 06:53:12;;;;;;;;;;;19.50;84.80;;;;;;4331799;33;44234;-79
2021/09/07 06:55:42;;;;;;;;;;;19.50;84.80;;;;;;4332595;33;42709;-80
2021/09/07 06:58:09;;;;;;;;;;;19.50;84.80;;;;;;4331473;33;46113;-80
2021/09/07 07:00:36;;;;;;;;;;;19.50;84.80;;;;;;4331719;33;44065;-80
2021/09/07 07:03:03;;;;;;;;;;;19.50;84.80;;;;;;4331939;33;43819;-80
2021/09/07 07:05:31;;;;;;;;;;;19.50;84.90;;;;;;4332308;33;43165;-80
2021/09/07 07:07:58;;;;;;;;;;;19.50;85.00;;;;;;4332477;33;43553;-81
2021/09/07 07:10:28;;;;;;;;;;;19.50;85.10;;;;;;4331571;33;44202;-80
2021/09/07 07:12:56;;;;;;;;;;;19.50;85.20;;;;;;4331403;33;45781;-80
2021/09/07 07:15:23;;;;;;;;;;;19.50;85.30;;;;;;4331388;33;42850;-81
2021/09/07 07:17:51;;;;;;;;;;;19.50;85.30;;;;;;4318932;33;43837;-80
2021/09/07 07:20:18;;;;;;;;;;;19.50;85.40;;;;;;4330838;33;46357;-80
2021/09/07 07:22:45;;;;;;;;;;;19.50;85.40;;;;;;4332374;33;44183;-80
2021/09/07 07:25:12;;;;;;;;;;;19.50;85.40;;;;;;4330893;33;42643;-80
2021/09/07 07:27:41;;;;;;;;;;;19.50;85.40;;;;;;4330789;33;43815;-80
2021/09/07 07:30:09;;;;;;;;;;;19.50;85.40;;;;;;4331784;33;44255;-80
2021/09/07 07:32:38;;;;;;;;;;;19.50;85.30;;;;;;4332307;33;44224;-81
2021/09/07 07:35:07;;;;;;;;;;;19.50;85.30;;;;;;4331886;33;43216;-80
2021/09/07 07:37:34;;;;;;;;;;;19.50;85.20;;;;;;4331986;33;44199;-80
2021/09/07 07:40:02;;;;;;;;;;;19.50;85.20;;;;;;4330992;33;42962;-80
2021/09/07 07:42:30;;;;;;;;;;;19.50;85.30;;;;;;4331620;33;43860;-80
2021/09/07 07:44:57;;;;;;;;;;;19.50;85.30;;;;;;4332257;33;44106;-80
2021/09/07 07:47:24;;;;;;;;;;;19.50;85.40;;;;;;4330552;33;44163;-80
2021/09/07 07:49:51;;;;;;;;;;;19.50;85.30;;;;;;4331605;33;43350;-80
2021/09/07 07:52:18;;;;;;;;;;;19.50;85.40;;;;;;4332180;33;44332;-81
2021/09/07 07:54:49;;;;;;;;;;;19.50;85.40;;;;;;4331329;33;43394;-81
2021/09/07 07:57:20;;;;;;;;;;;19.50;85.30;;;;;;4330471;33;44552;-80
2021/09/07 07:59:50;;;;;;;;;;;19.50;85.30;;;;;;4330434;33;43981;-80
2021/09/07 08:02:25;;;;;;;;;;;19.50;85.40;;;;;;4327777;33;45980;-80
2021/09/07 08:04:54;;;;;;;;;;;19.50;85.40;;;;;;4328033;33;43807;-80
2021/09/07 08:07:21;;;;;;;;;;;19.50;85.40;;;;;;4315975;33;45960;-80
2021/09/07 08:09:48;;;;;;;;;;;19.60;85.50;;;;;;4328222;33;44347;-80
2021/09/07 08:12:18;;;;;;;;;;;19.50;85.40;;;;;;4316681;33;42995;-80
2021/09/07 08:14:46;;;;;;;;;;;19.60;85.50;;;;;;4315850;33;44785;-80
2021/09/07 08:17:13;;;;;;;;;;;19.60;85.50;;;;;;4316861;33;43478;-80
2021/09/07 08:19:43;;;;;;;;;;;19.60;85.60;;;;;;4316859;33;44848;-80
2021/09/07 08:22:11;;;;;;;;;;;19.60;85.60;;;;;;4327945;33;43512;-80
2021/09/07 08:24:38;;;;;;;;;;;19.60;85.50;;;;;;4315854;33;45414;-80
2021/09/07 08:27:06;;;;;;;;;;;19.60;85.60;;;;;;4316614;33;43765;-80
2021/09/07 08:29:33;;;;;;;;;;;19.60;85.70;;;;;;4316644;33;42655;-80
2021/09/07 08:32:00;;;;;;;;;;;19.60;85.70;;;;;;4316642;33;44231;-80
2021/09/07 08:34:30;;;;;;;;;;;19.70;85.80;;;;;;4327666;33;44016;-80
2021/09/07 08:36:57;;;;;;;;;;;19.70;85.90;;;;;;4327307;33;44177;-81
2021/09/07 08:39:24;;;;;;;;;;;19.70;86.00;;;;;;4316256;33;42942;-80
2021/09/07 08:41:51;;;;;;;;;;;19.70;86.00;;;;;;4316802;33;44255;-80
2021/09/07 08:44:18;;;;;;;;;;;19.70;86.10;;;;;;4315810;33;43185;-81
2021/09/07 08:46:46;;;;;;;;;;;19.70;86.10;;;;;;4316317;33;43196;-80
2021/09/07 08:49:16;;;;;;;;;;;19.70;86.30;;;;;;4316203;33;43490;-81
2021/09/07 08:51:44;;;;;;;;;;;19.80;86.30;;;;;;4316985;33;20049;-81
2021/09/07 08:54:14;;;;;;;;;;;19.80;86.30;;;;;;4327631;33;43240;-80
2021/09/07 08:56:41;;;;;;;;;;;19.80;86.40;;;;;;4327339;33;44403;-80
2021/09/07 08:59:09;;;;;;;;;;;19.80;86.50;;;;;;4315022;33;43523;-80
2021/09/07 09:01:41;;;;;;;;;;;19.80;86.50;;;;;;4327248;33;43252;-80
2021/09/07 09:04:29;;;;;;;;;;;19.80;86.60;;;;;;4315398;33;43490;-80
2021/09/07 09:07:02;;;;;;;;;;;19.80;86.50;;;;;;4316107;33;43682;-80
2021/09/07 09:09:39;;;;;;;;;;;19.90;86.60;;;;;;4315246;33;42322;-81
2021/09/07 09:12:09;;;;;;;;;;;19.80;86.40;;;;;;4314781;33;43913;-81
2021/09/07 09:14:37;;;;;;;;;;;19.90;86.40;;;;;;4327278;33;44705;-81
2021/09/07 09:17:16;;;;;;;;;;;19.90;86.40;;;;;;4316093;33;43198;-80
2021/09/07 09:19:53;;;;;;;;;;;19.90;86.30;;;;;;4327396;33;43856;-80
2021/09/07 09:22:21;;;;;;;;;;;19.90;86.30;;;;;;4317027;33;20006;-80
2021/09/07 09:24:48;;;;;;;;;;;19.90;86.40;;;;;;4326823;33;45300;-80
2021/09/07 09:27:20;;;;;;;;;;;19.90;86.40;;;;;;4326896;33;44324;-80
2021/09/07 09:29:47;;;;;;;;;;;19.90;86.40;;;;;;4326887;33;43454;-80
2021/09/07 09:32:22;;;;;;;;;;;19.90;86.40;;;;;;4315243;33;43260;-81
2021/09/07 09:34:50;;;;;;;;;;;20.00;86.60;;;;;;4326933;33;45385;-81
2021/09/07 09:37:20;;;;;;;;;;;20.00;86.50;;;;;;4315006;33;46047;-80
2021/09/07 09:39:47;;;;;;;;;;;20.00;86.50;;;;;;4327010;33;45889;-81
2021/09/07 09:42:24;;;;;;;;;;;20.00;86.50;;;;;;4326581;33;45792;-80
2021/09/07 09:45:04;;;;;;;;;;;20.00;86.40;;;;;;4327125;33;44179;-80
2021/09/07 09:47:40;;;;;;;;;;;20.00;86.30;;;;;;4327036;33;43310;-80
2021/09/07 09:50:07;;;;;;;;;;;20.00;86.40;;;;;;4326534;33;42861;-80
2021/09/07 09:52:36;;;;;;;;;;;20.00;86.40;;;;;;4316599;33;20112;-81
2021/09/07 09:55:04;;;;;;;;;;;20.10;86.50;;;;;;4315631;33;42889;-81
2021/09/07 09:57:34;;;;;;;;;;;20.10;86.50;;;;;;4315723;33;43279;-81
2021/09/07 10:00:03;;;;;;;;;;;20.10;86.50;;;;;;4315665;33;43782;-80
2021/09/07 10:02:31;;;;;;;;;;;20.10;86.50;;;;;;4323443;33;43235;-81
2021/09/07 10:04:59;;;;;;;;;;;20.10;86.40;;;;;;4328927;33;43203;-80
2021/09/07 10:07:27;;;;;;;;;;;20.10;86.30;;;;;;4329201;33;43085;-80
2021/09/07 10:09:56;;;;;;;;;;;20.10;86.30;;;;;;4330252;33;44271;-80
2021/09/07 10:12:35;;;;;;;;;;;20.10;86.20;;;;;;4329401;33;43494;-80
2021/09/07 10:15:16;;;;;;;;;;;20.20;86.20;;;;;;4330380;33;43002;-80
2021/09/07 10:17:53;;;;;;;;;;;20.20;86.20;;;;;;4329015;33;44510;-79
2021/09/07 10:20:39;;;;;;;;;;;20.20;86.20;;;;;;4329477;33;43214;-79
2021/09/07 10:26:08;;;;;;;;;;;20.30;86.10;;;;;;4323614;33;43839;-79
2021/09/07 10:28:43;;;;;;;;;;;20.30;86.10;;;;;;4332013;33;42521;-79
2021/09/07 10:31:16;;;;;;;;;;;20.30;86.10;;;;;;4332304;33;46087;-80
2021/09/07 10:33:44;;;;;;;;;;;20.30;86.10;;;;;;4332844;33;43786;-80
2021/09/07 10:36:16;;;;;;;;;;;20.30;86.10;;;;;;4331520;33;43651;-79
2021/09/07 10:38:59;;;;;;;;;;;20.40;86.00;;;;;;4332116;33;43862;-79
2021/09/07 10:41:29;;;;;;;;;;;20.40;86.00;;;;;;4331586;33;43041;-79
2021/09/07 10:44:00;;;;;;;;;;;20.40;86.00;;;;;;4331967;33;44592;-79
2021/09/07 10:46:46;;;;;;;;;;;20.40;86.10;;;;;;4331908;33;45030;-78
2021/09/07 10:49:28;;;;;;;;;;;20.40;86.00;;;;;;4331584;33;42793;-79
2021/09/07 10:52:05;;;;;;;;;;;20.40;86.20;;;;;;4331414;33;42098;-79
2021/09/07 10:54:44;;;;;;;;;;;20.40;86.00;;;;;;4332818;33;43279;-78
2021/09/07 10:57:31;;;;;;;;;;;20.50;86.10;;;;;;4331696;33;44634;-79
2021/09/07 11:00:03;;;;;;;;;;;20.50;86.10;;;;;;4329733;33;42502;-78
2021/09/07 11:02:31;;;;;;;;;;;20.50;86.10;;;;;;4331735;33;42229;-78
2021/09/07 11:05:10;;;;;;;;;;;20.50;86.10;;;;;;4331296;33;44304;-79
2021/09/07 11:07:45;;;;;;;;;;;20.60;86.20;;;;;;4331631;33;44163;-79
2021/09/07 11:10:23;;;;;;;;;;;20.60;86.20;;;;;;4331607;33;45918;-78
2021/09/07 11:12:53;;;;;;;;;;;20.60;86.20;;;;;;4331327;33;42693;-78
2021/09/07 11:15:23;;;;;;;;;;;20.70;86.20;;;;;;4330885;33;45921;-78
2021/09/07 11:17:59;;;;;;;;;;;20.70;86.20;;;;;;4331442;33;44109;-78
2021/09/07 11:20:33;;;;;;;;;;;20.70;86.20;;;;;;4331522;33;45056;-79
2021/09/07 11:23:30;;;;;;;;;;;20.80;86.20;;;;;;4331488;33;44321;-79
2021/09/07 11:25:57;;;;;;;;;;;20.80;86.10;;;;;;4330919;33;45800;-79
2021/09/07 11:28:24;;;;;;;;;;;20.80;86.00;;;;;;4332481;33;43204;-77
2021/09/07 11:30:52;;;;;;;;;;;20.90;86.10;;;;;;4330887;33;42364;-78
2021/09/07 11:33:20;;;;;;;;;;;20.90;86.10;;;;;;4331863;33;43516;-78
2021/09/07 11:36:06;;;;;;;;;;;20.90;86.10;;;;;;4329948;33;42932;-78
2021/09/07 11:38:36;;;;;;;;;;;21.00;86.20;;;;;;4330699;33;43694;-78
2021/09/07 11:41:10;;;;;;;;;;;21.00;86.10;;;;;;4331062;33;45476;-78
2021/09/07 11:43:40;;;;;;;;;;;21.00;86.10;;;;;;4331145;33;43137;-78
2021/09/07 11:46:15;;;;;;;;;;;21.10;86.10;;;;;;4331844;33;42296;-78
2021/09/07 11:48:47;;;;;;;;;;;21.10;86.20;;;;;;4331289;33;42979;-78
2021/09/07 11:51:16;;;;;;;;;;;21.10;86.10;;;;;;4331685;33;43474;-78
2021/09/07 11:53:46;;;;;;;;;;;21.20;86.20;;;;;;4331624;33;42867;-78
2021/09/07 11:56:28;;;;;;;;;;;21.20;86.20;;;;;;4331391;33;20040;-77
2021/09/07 11:59:08;;;;;;;;;;;21.20;86.20;;;;;;4331044;33;44192;-77
2021/09/07 12:01:43;;;;;;;;;;;21.30;86.20;;;;;;4330287;33;42650;-78
2021/09/07 12:04:14;;;;;;;;;;;21.30;87.00;;;;;;4330839;33;44337;-78
2021/09/07 12:06:44;;;;;;;;;;;21.30;86.20;;;;;;4330948;33;44786;-78
2021/09/07 12:09:14;;;;;;;;;;;21.40;86.20;;;;;;4331817;33;44660;-79
2021/09/07 12:11:42;;;;;;;;;;;21.40;86.30;;;;;;4330704;33;46004;-79
2021/09/07 12:14:10;;;;;;;;;;;21.40;86.30;;;;;;4331576;33;43577;-78
2021/09/07 12:16:48;;;;;;;;;;;21.50;86.40;;;;;;4330522;33;45274;-77
2021/09/07 12:19:26;;;;;;;;;;;21.50;86.30;;;;;;4331774;33;44218;-77
2021/09/07 12:22:03;;;;;;;;;;;21.50;87.10;;;;;;4330472;33;43401;-78
2021/09/07 12:24:30;;;;;;;;;;;21.60;86.40;;;;;;4331207;33;43438;-78
2021/09/07 12:26:58;;;;;;;;;;;21.60;87.20;;;;;;4332248;33;20005;-78
2021/09/07 12:29:27;;;;;;;;;;;21.60;86.40;;;;;;4329999;33;42767;-77
2021/09/07 12:32:01;;;;;;;;;;;21.60;86.40;;;;;;4330114;33;42901;-77
2021/09/07 12:34:28;;;;;;;;;;;21.70;86.50;;;;;;4330288;33;43901;-80
2021/09/07 12:36:55;;;;;;;;;;;21.80;86.50;;;;;;4331581;33;44796;-77
2021/09/07 12:39:27;;;;;;;;;;;21.80;86.50;;;;;;4330276;33;43488;-77
2021/09/07 12:41:57;;;;;;;;;;;21.80;86.40;;;;;;4330428;33;43034;-77
2021/09/07 12:44:24;;;;;;;;;;;21.90;86.50;;;;;;4330839;33;44760;-77
2021/09/07 12:46:51;;;;;;;;;;;21.90;86.50;;;;;;4331124;33;43475;-77
2021/09/07 12:49:18;;;;;;;;;;;21.90;86.20;;;;;;4330227;33;43490;-77
2021/09/07 12:51:45;;;;;;;;;;;21.90;85.70;;;;;;4331319;33;43537;-77
2021/09/07 12:54:17;;;;;;;;;;;22.00;86.10;;;;;;4329674;33;43486;-77
2021/09/07 12:56:44;;;;;;;;;;;22.10;85.40;;;;;;4329873;33;43551;-77
2021/09/07 12:59:11;;;;;;;;;;;22.10;84.90;;;;;;4331024;33;43878;-77
2021/09/07 13:01:41;;;;;;;;;;;22.10;84.80;;;;;;4326932;33;43996;-77
2021/09/07 13:04:09;;;;;;;;;;;22.20;85.10;;;;;;4327069;33;43320;-77
2021/09/07 13:06:41;;;;;;;;;;;22.30;85.20;;;;;;4316388;33;43351;-77
2021/09/07 13:09:09;;;;;;;;;;;22.30;85.00;;;;;;4314855;33;44136;-77
2021/09/07 13:11:38;;;;;;;;;;;22.40;84.40;;;;;;4327318;33;44445;-76
2021/09/07 13:14:08;;;;;;;;;;;22.40;84.70;;;;;;4315086;33;43762;-77
2021/09/07 13:16:38;;;;;;;;;;;22.50;84.30;;;;;;4327095;33;42141;-77
2021/09/07 13:19:06;;;;;;;;;;;22.50;84.20;;;;;;4326855;33;42811;-78
2021/09/07 13:21:48;;;;;;;;;;;22.60;84.40;;;;;;4314904;33;43513;-78
2021/09/07 13:24:15;;;;;;;;;;;22.60;84.00;;;;;;4314834;33;43536;-77
2021/09/07 13:26:42;;;;;;;;;;;22.60;84.40;;;;;;4327210;33;43891;-77
2021/09/07 13:29:09;;;;;;;;;;;22.70;84.30;;;;;;4317078;33;20037;-77
2021/09/07 13:31:39;;;;;;;;;;;22.70;84.20;;;;;;4315702;33;43259;-77
2021/09/07 13:34:06;;;;;;;;;;;22.70;83.90;;;;;;4315614;33;43189;-77
2021/09/07 13:36:36;;;;;;;;;;;22.80;84.00;;;;;;4326947;33;43271;-77
2021/09/07 13:39:05;;;;;;;;;;;22.80;83.90;;;;;;4316093;33;43888;-77
2021/09/07 13:41:35;;;;;;;;;;;22.90;83.80;;;;;;4315607;33;42846;-77
2021/09/07 13:44:08;;;;;;;;;;;22.90;84.10;;;;;;4316105;33;43188;-77
2021/09/07 13:46:37;;;;;;;;;;;22.90;83.80;;;;;;4327042;33;45497;-78
2021/09/07 13:49:07;;;;;;;;;;;23.00;83.80;;;;;;4315665;33;42466;-77
2021/09/07 13:51:46;;;;;;;;;;;23.10;83.20;;;;;;4316062;33;43181;-77
2021/09/07 13:54:14;;;;;;;;;;;23.10;83.00;;;;;;4314754;33;45306;-77
2021/09/07 13:56:41;;;;;;;;;;;23.10;83.10;;;;;;4327323;33;43817;-77
2021/09/07 13:59:08;;;;;;;;;;;23.20;83.10;;;;;;4320535;33;43954;-77
2021/09/07 14:01:36;;;;;;;;;;;23.20;83.00;;;;;;4322685;33;44077;-77
2021/09/07 14:04:06;;;;;;;;;;;23.30;82.40;;;;;;4335583;33;44267;-77
2021/09/07 14:06:33;;;;;;;;;;;23.30;82.80;;;;;;4334614;33;43618;-77
2021/09/07 14:09:01;;;;;;;;;;;23.30;83.10;;;;;;4333745;33;42245;-77
2021/09/07 14:11:28;;;;;;;;;;;23.40;82.70;;;;;;4334269;33;42775;-78
2021/09/07 14:13:55;;;;;;;;;;;23.40;82.20;;;;;;4335450;33;43188;-77
2021/09/07 14:16:24;;;;;;;;;;;23.50;82.80;;;;;;4334760;33;44227;-77
2021/09/07 14:18:56;;;;;;;;;;;23.50;82.10;;;;;;4334011;33;43478;-77
2021/09/07 14:21:23;;;;;;;;;;;23.50;82.10;;;;;;4335415;33;43911;-77
2021/09/07 14:23:51;;;;;;;;;;;23.60;81.70;;;;;;4335231;33;43206;-77
2021/09/07 14:26:18;;;;;;;;;;;23.60;81.70;;;;;;4333620;33;43024;-77
2021/09/07 14:28:47;;;;;;;;;;;23.60;81.20;;;;;;4334764;33;43794;-77
2021/09/07 14:31:14;;;;;;;;;;;23.70;81.50;;;;;;4335473;33;43159;-77
2021/09/07 14:33:45;;;;;;;;;;;23.70;81.40;;;;;;4335204;33;43479;-77